createdAt,value
2023-04-15T00:00:08.614Z,10.50
2023-04-15T00:03:02.690Z,10.52
2023-04-15T00:05:32.014Z,10.42
2023-04-15T00:08:00.169Z,10.27
2023-04-15T00:10:28.778Z,10.32
2023-04-15T00:12:56.545Z,9.88
2023-04-15T00:15:24.535Z,9.87
2023-04-15T00:17:52.560Z,9.93
2023-04-15T00:20:21.225Z,9.92
2023-04-15T00:22:49.019Z,9.90
2023-04-15T00:25:17.485Z,9.89
2023-04-15T00:27:45.160Z,9.93
2023-04-15T00:30:15.989Z,10.01
2023-04-15T00:32:44.006Z,10.03
2023-04-15T00:35:12.568Z,10.02
2023-04-15T00:37:40.680Z,9.95
2023-04-15T00:40:14.089Z,9.94
2023-04-15T00:42:42.137Z,9.93
2023-04-15T00:45:11.165Z,9.93
2023-04-15T00:47:41.938Z,9.94
2023-04-15T00:50:11.516Z,9.88
2023-04-15T00:52:40.138Z,9.91
2023-04-15T00:55:09.515Z,9.92
2023-04-15T00:57:38.916Z,9.93
2023-04-15T01:00:12.174Z,9.91
2023-04-15T01:02:40.520Z,9.93
2023-04-15T01:05:09.773Z,9.84
2023-04-15T01:07:38.228Z,9.76
2023-04-15T01:10:08.486Z,9.74
2023-04-15T01:12:38.163Z,9.72
2023-04-15T01:15:07.182Z,9.59
2023-04-15T01:17:35.727Z,9.67
2023-04-15T01:20:05.644Z,9.63
2023-04-15T01:22:35.109Z,9.54
2023-04-15T01:25:13.543Z,9.64
2023-04-15T01:27:42.803Z,9.53
2023-04-15T01:30:11.854Z,9.47
2023-04-15T01:32:39.763Z,9.47
2023-04-15T01:35:27.376Z,9.46
2023-04-15T01:37:56.712Z,9.34
2023-04-15T01:40:25.286Z,9.37
2023-04-15T01:42:54.525Z,9.43
2023-04-15T01:45:24.125Z,9.49
2023-04-15T01:47:53.721Z,9.49
2023-04-15T01:50:23.071Z,9.51
2023-04-15T01:52:52.475Z,9.53
2023-04-15T01:55:21.976Z,9.46
2023-04-15T01:57:50.964Z,9.46
2023-04-15T02:00:20.533Z,9.49
2023-04-15T02:02:49.974Z,9.54
2023-04-15T02:05:19.503Z,9.63
2023-04-15T02:07:50.593Z,9.59
2023-04-15T02:10:19.992Z,9.63
2023-04-15T02:12:49.048Z,9.68
2023-04-15T02:15:18.529Z,9.86
2023-04-15T02:17:51.254Z,9.75
2023-04-15T02:20:21.758Z,9.80
2023-04-15T02:22:50.970Z,9.92
2023-04-15T02:25:20.852Z,9.98
2023-04-15T02:27:50.044Z,10.06
2023-04-15T02:30:19.552Z,10.11
2023-04-15T02:32:48.779Z,10.21
2023-04-15T02:35:20.216Z,10.27
2023-04-15T02:37:49.451Z,10.34
2023-04-15T02:40:20.111Z,10.43
2023-04-15T02:42:49.445Z,10.52
2023-04-15T02:45:23.996Z,10.57
2023-04-15T02:47:53.137Z,10.67
2023-04-15T02:50:23.997Z,10.74
2023-04-15T02:52:53.084Z,10.55
2023-04-15T02:55:22.856Z,10.68
2023-04-15T02:57:52.238Z,10.75
2023-04-15T03:00:21.900Z,10.66
2023-04-15T03:02:56.862Z,10.74
2023-04-15T03:05:26.968Z,10.88
2023-04-15T03:07:56.462Z,10.85
2023-04-15T03:10:26.149Z,10.91
2023-04-15T03:12:55.109Z,11.09
2023-04-15T03:15:26.331Z,11.11
2023-04-15T03:17:56.821Z,11.21
2023-04-15T03:20:26.522Z,11.30
2023-04-15T03:22:55.550Z,11.40
2023-04-15T03:25:26.323Z,11.53
2023-04-15T03:27:55.326Z,11.45
2023-04-15T03:30:24.810Z,11.54
2023-04-15T03:32:54.001Z,11.62
2023-04-15T03:35:23.709Z,11.56
2023-04-15T03:37:52.644Z,11.67
2023-04-15T03:40:22.605Z,11.72
2023-04-15T03:42:51.754Z,11.85
2023-04-15T03:45:21.122Z,11.76
2023-04-15T03:47:50.394Z,11.76
2023-04-15T03:50:19.720Z,11.72
2023-04-15T03:52:50.644Z,11.88
2023-04-15T03:55:20.993Z,11.89
2023-04-15T03:57:50.077Z,12.03
2023-04-15T04:00:20.003Z,12.06
2023-04-15T04:02:49.472Z,12.03
2023-04-15T04:05:19.242Z,12.11
2023-04-15T04:07:48.223Z,12.18
2023-04-15T04:10:18.195Z,12.34
2023-04-15T04:12:47.384Z,12.38
2023-04-15T04:15:16.920Z,12.49
2023-04-15T04:17:45.990Z,12.58
2023-04-15T04:20:15.525Z,12.56
2023-04-15T04:22:44.584Z,12.55
2023-04-15T04:25:14.152Z,12.61
2023-04-15T04:27:43.356Z,12.70
2023-04-15T04:30:13.166Z,12.70
2023-04-15T04:32:42.350Z,12.89
2023-04-15T04:35:11.755Z,13.00
2023-04-15T04:37:40.861Z,13.04
2023-04-15T04:40:11.154Z,13.07
2023-04-15T04:42:40.903Z,13.13
2023-04-15T04:45:10.505Z,12.96
2023-04-15T04:47:39.665Z,12.93
2023-04-15T04:50:09.458Z,13.07
2023-04-15T04:52:39.094Z,13.06
2023-04-15T04:55:08.946Z,13.03
2023-04-15T04:57:39.756Z,13.08
2023-04-15T05:00:09.643Z,13.15
2023-04-15T05:02:38.995Z,13.23
2023-04-15T05:05:08.962Z,13.35
2023-04-15T05:07:38.901Z,13.42
2023-04-15T05:10:09.104Z,13.42
2023-04-15T05:12:39.047Z,13.58
2023-04-15T05:15:09.059Z,13.58
2023-04-15T05:17:38.169Z,13.73
2023-04-15T05:20:08.397Z,13.70
2023-04-15T05:22:37.646Z,13.65
2023-04-15T05:25:07.588Z,13.28
2023-04-15T05:27:37.063Z,13.30
2023-04-15T05:30:07.512Z,13.57
2023-04-15T05:32:36.693Z,13.67
2023-04-15T05:35:07.032Z,13.78
2023-04-15T05:37:36.430Z,14.02
2023-04-15T05:40:06.403Z,14.03
2023-04-15T05:42:35.953Z,14.21
2023-04-15T05:45:09.610Z,14.41
2023-04-15T05:47:38.937Z,14.54
2023-04-15T05:50:08.601Z,14.65
2023-04-15T05:52:37.624Z,14.69
2023-04-15T05:55:07.504Z,14.85
2023-04-15T05:57:36.913Z,14.90
2023-04-15T06:00:06.932Z,14.86
2023-04-15T06:02:42.122Z,14.87
2023-04-15T06:05:12.203Z,14.88
2023-04-15T06:07:41.372Z,14.97
2023-04-15T06:10:11.310Z,14.98
2023-04-15T06:12:40.272Z,14.98
2023-04-15T06:15:13.026Z,15.03
2023-04-15T06:17:42.078Z,15.07
2023-04-15T06:20:12.321Z,15.07
2023-04-15T06:22:41.489Z,15.20
2023-04-15T06:25:11.275Z,15.31
2023-04-15T06:27:40.931Z,15.31
2023-04-15T06:30:10.801Z,15.33
2023-04-15T06:32:39.914Z,15.42
2023-04-15T06:35:09.898Z,15.51
2023-04-15T06:37:39.055Z,15.51
2023-04-15T06:40:10.379Z,15.57
2023-04-15T06:42:39.527Z,15.59
2023-04-15T06:45:09.774Z,15.75
2023-04-15T06:47:38.962Z,15.75
2023-04-15T06:50:09.581Z,15.75
2023-04-15T06:52:38.757Z,15.92
2023-04-15T06:55:09.108Z,15.89
2023-04-15T06:57:38.197Z,15.87
2023-04-15T07:00:08.250Z,16.02
2023-04-15T07:02:37.397Z,15.93
2023-04-15T07:05:07.687Z,15.95
2023-04-15T07:07:37.033Z,16.00
2023-04-15T07:10:07.086Z,15.98
2023-04-15T07:12:36.579Z,16.04
2023-04-15T07:15:07.138Z,16.16
2023-04-15T07:17:36.414Z,16.24
2023-04-15T07:20:06.213Z,16.25
2023-04-15T07:22:35.432Z,16.37
2023-04-15T07:25:05.295Z,16.33
2023-04-15T07:27:34.212Z,16.35
2023-04-15T07:30:03.929Z,16.45
2023-04-15T07:32:32.970Z,16.40
2023-04-15T07:35:04.011Z,16.45
2023-04-15T07:37:33.857Z,16.41
2023-04-15T07:40:07.546Z,16.38
2023-04-15T07:42:38.507Z,16.48
2023-04-15T07:45:09.834Z,16.43
2023-04-15T07:47:39.049Z,16.46
2023-04-15T07:50:09.789Z,16.55
2023-04-15T07:52:39.705Z,16.58
2023-04-15T07:55:09.888Z,16.62
2023-04-15T07:57:38.954Z,16.76
2023-04-15T08:00:09.254Z,16.78
2023-04-15T08:02:44.891Z,16.87
2023-04-15T08:05:15.229Z,16.89
2023-04-15T08:07:44.262Z,17.01
2023-04-15T08:10:13.721Z,17.06
2023-04-15T08:12:43.138Z,17.12
2023-04-15T08:15:13.470Z,17.18
2023-04-15T08:17:43.449Z,17.34
2023-04-15T08:20:13.658Z,17.39
2023-04-15T08:22:42.973Z,17.50
2023-04-15T08:25:12.284Z,17.64
2023-04-15T08:27:41.467Z,17.71
2023-04-15T08:30:11.014Z,17.78
2023-04-15T08:32:40.260Z,17.84
2023-04-15T08:35:10.758Z,17.87
2023-04-15T08:37:39.936Z,17.90
2023-04-15T08:40:10.175Z,17.88
2023-04-15T08:42:45.007Z,17.98
2023-04-15T08:45:15.670Z,17.99
2023-04-15T08:47:47.853Z,18.12
2023-04-15T08:50:18.725Z,18.16
2023-04-15T08:52:48.337Z,18.18
2023-04-15T08:55:18.272Z,18.23
2023-04-15T08:57:47.483Z,18.27
2023-04-15T09:00:17.639Z,18.28
2023-04-15T09:02:47.216Z,18.32
2023-04-15T09:05:17.733Z,18.40
2023-04-15T09:07:46.944Z,18.55
2023-04-15T09:10:16.404Z,18.51
2023-04-15T09:12:45.657Z,18.51
2023-04-15T09:15:16.769Z,18.64
2023-04-15T09:17:46.607Z,18.67
2023-04-15T09:20:19.013Z,18.63
2023-04-15T09:22:49.599Z,18.73
2023-04-15T09:25:25.188Z,18.74
2023-04-15T09:27:57.195Z,18.81
2023-04-15T09:30:28.525Z,18.78
2023-04-15T09:33:02.616Z,18.83
2023-04-15T09:35:32.291Z,18.81
2023-04-15T09:38:10.213Z,18.83
2023-04-15T09:40:42.770Z,18.86
2023-04-15T09:43:14.708Z,18.89
2023-04-15T09:45:54.121Z,18.95
2023-04-15T09:48:27.463Z,19.12
2023-04-15T09:51:00.703Z,19.29
2023-04-15T09:53:31.814Z,19.33
2023-04-15T09:56:02.871Z,19.29
2023-04-15T09:58:35.386Z,19.36
2023-04-15T10:01:09.532Z,19.41
2023-04-15T10:03:42.634Z,19.46
2023-04-15T10:06:12.380Z,19.47
2023-04-15T10:08:42.157Z,19.52
2023-04-15T10:11:13.006Z,19.61
2023-04-15T10:13:42.225Z,19.57
2023-04-15T10:16:17.130Z,19.67
2023-04-15T10:18:51.826Z,19.69
2023-04-15T10:21:22.951Z,19.69
2023-04-15T10:23:52.534Z,19.67
2023-04-15T10:26:22.687Z,19.71
2023-04-15T10:28:53.860Z,19.79
2023-04-15T10:31:24.004Z,19.91
2023-04-15T10:33:53.978Z,19.83
2023-04-15T10:36:23.783Z,19.95
2023-04-15T10:38:52.979Z,19.98
2023-04-15T10:41:34.739Z,19.93
2023-04-15T10:44:05.711Z,19.95
2023-04-15T10:46:42.039Z,19.94
2023-04-15T10:49:15.247Z,19.95
2023-04-15T10:51:53.128Z,19.97
2023-04-15T10:54:25.170Z,20.04
2023-04-15T10:57:06.789Z,20.10
2023-04-15T11:00:04.775Z,20.19
2023-04-15T11:02:47.735Z,20.18
2023-04-15T11:05:19.108Z,20.24
2023-04-15T11:07:56.784Z,20.26
2023-04-15T11:10:26.118Z,20.34
2023-04-15T11:13:03.441Z,20.34
2023-04-15T11:15:38.133Z,20.23
2023-04-15T11:18:18.193Z,20.17
2023-04-15T11:20:52.522Z,20.05
2023-04-15T11:23:58.063Z,20.05
2023-04-15T11:26:27.537Z,20.10
2023-04-15T11:28:57.305Z,20.26
2023-04-15T11:31:28.991Z,20.29
2023-04-15T11:34:01.874Z,20.25
2023-04-15T11:36:32.421Z,20.32
2023-04-15T11:39:01.915Z,20.36
2023-04-15T11:41:31.022Z,20.38
2023-04-15T11:44:00.713Z,20.37
2023-04-15T11:46:32.188Z,20.40
2023-04-15T11:49:01.936Z,20.35
2023-04-15T11:51:36.649Z,20.39
2023-04-15T11:54:05.319Z,20.32
2023-04-15T11:56:34.440Z,20.21
2023-04-15T11:59:03.249Z,20.25
2023-04-15T12:01:36.800Z,20.19
2023-04-15T12:04:17.390Z,20.25
2023-04-15T12:06:45.896Z,20.32
2023-04-15T12:09:15.632Z,20.36
2023-04-15T12:11:57.759Z,20.37
2023-04-15T12:14:33.538Z,20.41
2023-04-15T12:17:03.158Z,20.43
2023-04-15T12:19:35.795Z,20.43
2023-04-15T12:22:11.404Z,20.39
2023-04-15T12:24:40.105Z,20.40
2023-04-15T12:27:12.455Z,20.40
2023-04-15T12:29:43.357Z,20.41
2023-04-15T12:32:16.293Z,20.39
2023-04-15T12:34:58.472Z,20.45
2023-04-15T12:37:26.585Z,20.46
2023-04-15T12:39:55.134Z,20.41
2023-04-15T12:42:22.954Z,20.32
2023-04-15T12:44:51.086Z,20.28
2023-04-15T12:47:18.901Z,20.35
2023-04-15T12:49:47.361Z,20.30
2023-04-15T12:52:15.471Z,20.33
2023-04-15T12:54:43.502Z,20.26
2023-04-15T12:57:11.351Z,20.23
2023-04-15T12:59:39.492Z,20.28
2023-04-15T13:02:07.687Z,20.27
2023-04-15T13:04:35.967Z,20.25
2023-04-15T13:07:04.291Z,20.23
2023-04-15T13:09:32.682Z,20.31
2023-04-15T13:12:00.791Z,20.35
2023-04-15T13:14:29.080Z,20.39
2023-04-15T13:16:57.284Z,20.36
2023-04-15T13:19:26.102Z,20.35
2023-04-15T13:21:53.981Z,20.35
2023-04-15T13:24:21.989Z,20.36
2023-04-15T13:26:50.497Z,20.35
2023-04-15T13:29:18.873Z,20.32
2023-04-15T13:31:46.617Z,20.29
2023-04-15T13:34:14.658Z,20.28
2023-04-15T13:36:42.484Z,20.30
2023-04-15T13:39:10.492Z,20.35
2023-04-15T13:41:38.343Z,20.32
2023-04-15T13:44:06.694Z,20.30
2023-04-15T13:46:34.802Z,20.32
2023-04-15T13:49:02.858Z,20.29
2023-04-15T13:51:32.209Z,20.23
2023-04-15T13:54:00.274Z,20.22
2023-04-15T13:56:28.041Z,20.24
2023-04-15T13:58:59.205Z,20.23
2023-04-15T14:01:27.508Z,20.22
2023-04-15T14:03:56.142Z,20.18
2023-04-15T14:06:24.027Z,20.17
2023-04-15T14:08:53.077Z,20.17
2023-04-15T14:11:20.951Z,20.13
2023-04-15T14:13:49.151Z,20.13
2023-04-15T14:16:17.112Z,20.12
2023-04-15T14:18:45.166Z,20.10
2023-04-15T14:21:13.244Z,20.09
2023-04-15T14:23:41.595Z,20.05
2023-04-15T14:26:09.332Z,20.04
2023-04-15T14:28:39.565Z,19.99
2023-04-15T14:31:07.385Z,19.97
2023-04-15T14:33:35.530Z,19.94
2023-04-15T14:36:03.479Z,19.89
2023-04-15T14:38:31.923Z,19.89
2023-04-15T14:40:59.748Z,19.86
2023-04-15T14:43:27.968Z,19.81
2023-04-15T14:45:56.163Z,19.78
2023-04-15T14:48:24.577Z,19.69
2023-04-15T14:50:53.680Z,19.73
2023-04-15T14:53:22.203Z,19.68
2023-04-15T14:55:49.933Z,19.65
2023-04-15T14:58:18.085Z,19.57
2023-04-15T15:00:46.323Z,19.59
2023-04-15T15:03:15.023Z,19.54
2023-04-15T15:05:47.543Z,19.55
2023-04-15T15:08:15.952Z,19.47
2023-04-15T15:10:48.384Z,19.44
2023-04-15T15:13:19.009Z,19.42
2023-04-15T15:15:49.551Z,19.37
2023-04-15T15:18:19.571Z,19.31
2023-04-15T15:20:47.959Z,19.26
2023-04-15T15:23:16.167Z,19.24
2023-04-15T15:25:44.776Z,19.21
2023-04-15T15:28:13.027Z,19.14
2023-04-15T15:30:40.967Z,19.11
2023-04-15T15:33:09.072Z,19.05
2023-04-15T15:35:37.136Z,19.01
2023-04-15T15:38:05.306Z,18.96
2023-04-15T15:40:33.429Z,18.91
2023-04-15T15:43:01.553Z,18.93
2023-04-15T15:45:29.285Z,18.85
2023-04-15T15:47:58.693Z,18.84
2023-04-15T15:50:26.682Z,18.78
2023-04-15T15:52:55.413Z,18.72
2023-04-15T15:55:25.600Z,18.70
2023-04-15T15:57:54.718Z,18.65
2023-04-15T16:00:23.476Z,18.62
2023-04-15T16:03:06.663Z,18.58
2023-04-15T16:05:36.409Z,18.54
2023-04-15T16:08:04.738Z,18.50
2023-04-15T16:10:32.726Z,18.48
2023-04-15T16:13:01.150Z,18.42
2023-04-15T16:15:29.071Z,18.39
2023-04-15T16:17:57.290Z,18.40
2023-04-15T16:20:25.092Z,18.39
2023-04-15T16:22:53.278Z,18.32
2023-04-15T16:25:21.195Z,18.34
2023-04-15T16:27:59.390Z,18.32
2023-04-15T16:30:31.535Z,18.27
2023-04-15T16:32:59.843Z,18.26
2023-04-15T16:35:27.706Z,18.19
2023-04-15T16:37:55.897Z,18.13
2023-04-15T16:40:23.947Z,18.06
2023-04-15T16:42:52.192Z,17.95
2023-04-15T16:45:19.970Z,17.98
2023-04-15T16:47:48.224Z,17.89
2023-04-15T16:50:16.210Z,17.81
2023-04-15T16:52:44.540Z,17.82
2023-04-15T16:55:12.342Z,17.78
2023-04-15T16:58:00.524Z,17.81
2023-04-15T17:00:29.914Z,17.69
2023-04-15T17:02:58.684Z,17.61
2023-04-15T17:05:29.610Z,17.64
2023-04-15T17:07:57.961Z,17.60
2023-04-15T17:10:25.767Z,17.62
2023-04-15T17:12:56.824Z,17.60
2023-04-15T17:15:25.298Z,17.56
2023-04-15T17:18:04.780Z,17.58
2023-04-15T17:20:35.829Z,17.55
2023-04-15T17:23:04.532Z,17.51
2023-04-15T17:25:32.906Z,17.44
2023-04-15T17:28:05.215Z,17.40
2023-04-15T17:30:34.648Z,17.46
2023-04-15T17:33:55.098Z,17.40
2023-04-15T17:36:31.178Z,17.33
2023-04-15T17:39:19.731Z,17.31
2023-04-15T17:42:07.678Z,17.33
2023-04-15T17:44:56.415Z,17.24
2023-04-15T17:47:44.790Z,17.22
2023-04-15T17:50:33.267Z,17.14
2023-04-15T17:53:21.183Z,17.15
2023-04-15T17:56:09.675Z,17.21
2023-04-15T17:58:58.718Z,17.22
2023-04-15T18:01:46.966Z,17.15
2023-04-15T18:04:34.802Z,17.08
2023-04-15T18:07:23.044Z,17.05
2023-04-15T18:10:11.397Z,17.07
2023-04-15T18:12:59.816Z,17.00
2023-04-15T18:15:48.930Z,16.96
2023-04-15T18:18:37.117Z,16.86
2023-04-15T18:21:05.102Z,16.72
2023-04-15T18:23:33.429Z,16.75
2023-04-15T18:26:01.347Z,16.81
2023-04-15T18:28:31.155Z,16.79
2023-04-15T18:30:59.155Z,16.79
2023-04-15T18:33:27.622Z,16.85
2023-04-15T18:35:57.639Z,16.84
2023-04-15T18:38:26.015Z,16.85
2023-04-15T18:40:53.900Z,16.82
2023-04-15T18:43:22.171Z,16.86
2023-04-15T18:45:52.070Z,16.84
2023-04-15T18:48:20.681Z,16.82
2023-04-15T18:50:49.355Z,16.87
2023-04-15T18:53:17.885Z,16.85
2023-04-15T18:55:45.963Z,16.86
2023-04-15T18:58:14.238Z,16.88
2023-04-15T19:00:44.030Z,16.86
2023-04-15T19:03:12.685Z,16.88
2023-04-15T19:05:40.724Z,16.83
2023-04-15T19:08:09.055Z,16.91
2023-04-15T19:10:37.108Z,16.89
2023-04-15T19:13:05.275Z,16.93
2023-04-15T19:15:33.086Z,16.92
2023-04-15T19:18:01.581Z,16.90
2023-04-15T19:20:29.496Z,16.98
2023-04-15T19:22:57.666Z,16.97
2023-04-15T19:25:25.829Z,16.97
2023-04-15T19:27:53.910Z,16.97
2023-04-15T19:30:22.127Z,16.91
2023-04-15T19:32:50.681Z,16.86
2023-04-15T19:35:18.478Z,16.85
2023-04-15T19:37:48.098Z,16.92
2023-04-15T19:40:16.174Z,16.84
2023-04-15T19:42:44.297Z,16.88
2023-04-15T19:45:12.112Z,16.89
2023-04-15T19:47:40.587Z,16.88
2023-04-15T19:50:10.277Z,16.87
2023-04-15T19:52:38.711Z,16.83
2023-04-15T19:55:06.877Z,16.84
2023-04-15T19:57:35.146Z,16.82
2023-04-15T20:00:03.257Z,16.69
2023-04-15T20:02:34.367Z,16.68
2023-04-15T20:05:02.676Z,16.69
2023-04-15T20:07:30.985Z,16.66
2023-04-15T20:09:58.796Z,16.59
2023-04-15T20:12:50.924Z,16.59
2023-04-15T20:15:15.314Z,16.52
2023-04-15T20:17:43.700Z,16.49
2023-04-15T20:20:11.594Z,16.51
2023-04-15T20:22:39.542Z,16.44
2023-04-15T20:25:08.261Z,16.33
2023-04-15T20:27:36.216Z,16.27
2023-04-15T20:30:05.323Z,16.25
2023-04-15T20:32:36.904Z,16.03
2023-04-15T20:35:06.161Z,16.03
2023-04-15T20:37:34.230Z,15.96
2023-04-15T20:40:02.667Z,15.97
2023-04-15T20:42:34.813Z,15.89
2023-04-15T20:45:03.469Z,15.74
2023-04-15T20:47:31.786Z,15.72
2023-04-15T20:50:00.373Z,15.57
2023-04-15T20:52:28.314Z,15.70
2023-04-15T20:54:56.557Z,15.79
2023-04-15T20:57:25.117Z,15.76
2023-04-15T20:59:53.523Z,15.81
2023-04-15T21:02:23.600Z,15.80
2023-04-15T21:04:52.353Z,15.81
2023-04-15T21:07:20.097Z,15.81
2023-04-15T21:09:48.221Z,15.80
2023-04-15T21:12:16.259Z,15.79
2023-04-15T21:14:45.301Z,15.76
2023-04-15T21:17:13.361Z,15.81
2023-04-15T21:19:42.689Z,15.82
2023-04-15T21:22:10.557Z,15.88
2023-04-15T21:24:38.746Z,15.81
2023-04-15T21:27:07.305Z,15.71
2023-04-15T21:29:35.422Z,15.49
2023-04-15T21:32:03.214Z,15.50
2023-04-15T21:34:31.422Z,15.45
2023-04-15T21:36:59.307Z,15.48
2023-04-15T21:39:27.496Z,15.54
2023-04-15T21:41:57.077Z,15.58
2023-04-15T21:44:25.674Z,15.64
2023-04-15T21:46:54.346Z,15.61
2023-04-15T21:49:24.928Z,15.56
2023-04-15T21:51:53.382Z,15.46
2023-04-15T21:54:21.460Z,15.51
2023-04-15T21:56:50.323Z,15.55
2023-04-15T21:59:18.667Z,15.47
2023-04-15T22:01:46.820Z,15.52
2023-04-15T22:04:16.216Z,15.22
2023-04-15T22:06:45.048Z,15.18
2023-04-15T22:09:14.773Z,15.27
2023-04-15T22:11:44.621Z,15.36
2023-04-15T22:14:21.520Z,15.34
2023-04-15T22:16:49.815Z,15.33
2023-04-15T22:19:18.571Z,15.31
2023-04-15T22:21:46.434Z,15.33
2023-04-15T22:24:38.063Z,15.38
2023-04-15T22:27:03.019Z,15.33
2023-04-15T22:29:31.693Z,15.30
2023-04-15T22:31:59.658Z,15.15
2023-04-15T22:34:27.855Z,15.05
2023-04-15T22:36:55.825Z,15.04
2023-04-15T22:39:23.923Z,15.07
2023-04-15T22:41:51.763Z,15.05
2023-04-15T22:44:19.828Z,15.00
2023-04-15T22:46:47.557Z,14.96
2023-04-15T22:49:15.829Z,15.04
2023-04-15T22:51:44.059Z,14.95
2023-04-15T22:54:12.122Z,14.88
2023-04-15T22:56:39.880Z,14.85
2023-04-15T22:59:08.301Z,14.88
2023-04-15T23:01:36.438Z,14.88
2023-04-15T23:04:08.468Z,14.75
2023-04-15T23:06:52.759Z,14.67
2023-04-15T23:09:23.992Z,14.55
2023-04-15T23:14:37.637Z,14.65
2023-04-15T23:17:05.748Z,14.61
2023-04-15T23:19:33.910Z,14.54
2023-04-15T23:22:01.962Z,14.46
2023-04-15T23:24:30.058Z,14.50
2023-04-15T23:26:57.703Z,14.45
2023-04-15T23:29:25.982Z,14.49
2023-04-15T23:31:53.691Z,14.44
2023-04-15T23:34:21.791Z,14.39
2023-04-15T23:36:49.714Z,14.41
2023-04-15T23:39:17.818Z,14.36
2023-04-15T23:41:45.506Z,14.30
2023-04-15T23:44:13.692Z,14.21
2023-04-15T23:46:41.659Z,14.18
2023-04-15T23:49:09.878Z,14.12
2023-04-15T23:51:37.829Z,14.09
2023-04-15T23:54:05.856Z,14.06
2023-04-15T23:56:33.625Z,13.98
2023-04-15T23:59:01.686Z,13.86
